Time;durP1;ratioP1;P1;durP2;ratioP2;P2;SDS_P1;SDS_P2;PMS_P1;PMS_P2;Temp;Humidity;BMP_temperature;BMP_pressure;BME280_temperature;BME280_humidity;BME280_pressure;Samples;Min_cycle;Max_cycle;Signal;HPM_P1;HPM_P2
2022/12/04 00:01:24;;;;;;;32.00;14.90;;;;;;;;;;5012375;28;20132;-76
2022/12/04 00:03:54;;;;;;;29.08;14.18;;;;;;;;;;5005864;28;20050;-76
2022/12/04 00:06:20;;;;;;;30.38;14.30;;;;;;;;;;5013401;28;20627;-76
2022/12/04 00:08:47;;;;;;;34.30;15.10;;;;;;;;;;5025607;28;20380;-76
2022/12/04 00:11:15;;;;;;;32.38;15.13;;;;;;;;;;5029798;28;20167;-76
2022/12/04 00:13:41;;;;;;;33.97;15.50;;;;;;;;;;5023007;28;20037;-76
2022/12/04 00:16:08;;;;;;;30.23;14.50;;;;;;;;;;5033755;28;20041;-76
2022/12/04 00:18:35;;;;;;;33.78;15.27;;;;;;;;;;5032214;28;20055;-76
2022/12/04 00:21:04;;;;;;;35.30;15.38;;;;;;;;;;5033763;28;20563;-76
2022/12/04 00:23:31;;;;;;;38.10;16.85;;;;;;;;;;5025710;28;20052;-77
2022/12/04 00:26:14;;;;;;;32.28;15.07;;;;;;;;;;5028192;28;20064;-77
2022/12/04 00:28:40;;;;;;;33.20;15.88;;;;;;;;;;5021473;28;20038;-76
2022/12/04 00:31:07;;;;;;;31.55;15.48;;;;;;;;;;5020006;28;20093;-76
2022/12/04 00:33:34;;;;;;;30.63;14.40;;;;;;;;;;5019936;28;20042;-76
2022/12/04 00:36:01;;;;;;;31.20;15.82;;;;;;;;;;5033453;28;20068;-76
2022/12/04 00:38:27;;;;;;;34.13;15.38;;;;;;;;;;5025495;28;20558;-76
2022/12/04 00:40:53;;;;;;;35.55;16.25;;;;;;;;;;5012326;28;20092;-76
2022/12/04 00:43:20;;;;;;;35.33;15.25;;;;;;;;;;5011996;28;20049;-76
2022/12/04 00:45:46;;;;;;;30.95;14.77;;;;;;;;;;5031875;28;20049;-76
2022/12/04 00:48:12;;;;;;;36.13;17.15;;;;;;;;;;5033061;28;20447;-76
2022/12/04 00:50:38;;;;;;;31.15;15.27;;;;;;;;;;5031852;28;20158;-76
2022/12/04 00:53:04;;;;;;;31.80;14.90;;;;;;;;;;5032405;28;20046;-76
2022/12/04 00:55:30;;;;;;;33.00;15.73;;;;;;;;;;5033669;28;20404;-76
2022/12/04 00:57:56;;;;;;;31.88;14.30;;;;;;;;;;5036993;28;20087;-76
2022/12/04 01:00:22;;;;;;;35.75;16.40;;;;;;;;;;5036788;28;20120;-76
2022/12/04 01:02:49;;;;;;;31.60;15.07;;;;;;;;;;5037103;28;20052;-76
2022/12/04 01:05:15;;;;;;;30.90;14.88;;;;;;;;;;5036550;28;20049;-76
2022/12/04 01:07:41;;;;;;;35.45;15.98;;;;;;;;;;5036675;28;20045;-76
2022/12/04 01:10:07;;;;;;;35.13;15.55;;;;;;;;;;5027029;28;20050;-76
2022/12/04 01:12:34;;;;;;;31.48;15.90;;;;;;;;;;5031021;28;20056;-76
2022/12/04 01:15:00;;;;;;;32.47;15.20;;;;;;;;;;5036993;28;20042;-76
2022/12/04 01:17:27;;;;;;;30.40;14.27;;;;;;;;;;5036688;28;20041;-76
2022/12/04 01:19:53;;;;;;;31.08;14.82;;;;;;;;;;5021320;28;20053;-76
2022/12/04 01:22:19;;;;;;;29.48;15.23;;;;;;;;;;5036907;28;20116;-76
2022/12/04 01:24:46;;;;;;;30.77;15.18;;;;;;;;;;5035423;28;20073;-76
2022/12/04 01:27:12;;;;;;;29.63;14.88;;;;;;;;;;5036547;28;20061;-76
2022/12/04 01:29:38;;;;;;;32.58;14.45;;;;;;;;;;5036248;28;20041;-76
2022/12/04 01:32:04;;;;;;;29.45;14.27;;;;;;;;;;5036709;28;20045;-76
2022/12/04 01:34:30;;;;;;;29.13;14.88;;;;;;;;;;5036546;28;20077;-76
2022/12/04 01:36:56;;;;;;;30.20;14.05;;;;;;;;;;5036349;28;20128;-76
2022/12/04 01:39:22;;;;;;;31.27;14.60;;;;;;;;;;5035797;28;20049;-76
2022/12/04 01:41:48;;;;;;;33.08;15.02;;;;;;;;;;5036214;28;20054;-76
2022/12/04 01:44:19;;;;;;;31.55;14.60;;;;;;;;;;5034711;28;20073;-76
2022/12/04 01:46:55;;;;;;;32.53;15.48;;;;;;;;;;5034898;28;20045;-76
2022/12/04 01:49:32;;;;;;;31.92;15.40;;;;;;;;;;5031992;28;20504;-76
2022/12/04 01:52:00;;;;;;;32.97;15.18;;;;;;;;;;5016065;28;20519;-76
2022/12/04 01:54:28;;;;;;;32.83;15.10;;;;;;;;;;5027024;28;20515;-76
2022/12/04 01:57:08;;;;;;;31.77;14.75;;;;;;;;;;5040621;28;20052;-76
2022/12/04 01:59:39;;;;;;;30.35;14.70;;;;;;;;;;5017448;28;20042;-76
2022/12/04 02:02:10;;;;;;;31.90;13.55;;;;;;;;;;5016083;28;20054;-76
2022/12/04 02:04:38;;;;;;;30.63;14.10;;;;;;;;;;5022215;28;20119;-76
2022/12/04 02:07:04;;;;;;;31.42;15.82;;;;;;;;;;5023737;28;20053;-76
2022/12/04 02:09:30;;;;;;;32.70;14.75;;;;;;;;;;5019820;28;20069;-76
2022/12/04 02:12:15;;;;;;;30.42;15.05;;;;;;;;;;5033927;28;20042;-76
2022/12/04 02:14:45;;;;;;;30.08;14.02;;;;;;;;;;5031235;28;20076;-76
2022/12/04 02:17:11;;;;;;;32.35;15.05;;;;;;;;;;5030540;28;20053;-76
2022/12/04 02:19:58;;;;;;;33.00;15.43;;;;;;;;;;5035173;28;20049;-76
2022/12/04 02:22:48;;;;;;;29.50;15.02;;;;;;;;;;5035101;28;20396;-77
2022/12/04 02:25:37;;;;;;;33.72;14.93;;;;;;;;;;5032712;28;20463;-76
2022/12/04 02:28:12;;;;;;;29.05;14.88;;;;;;;;;;4996766;28;20065;-76
2022/12/04 02:30:40;;;;;;;31.42;14.18;;;;;;;;;;5013333;28;20057;-76
2022/12/04 02:33:17;;;;;;;33.38;14.85;;;;;;;;;;4994179;28;20069;-76
2022/12/04 02:35:46;;;;;;;32.92;14.52;;;;;;;;;;5002985;28;20058;-76
2022/12/04 02:38:32;;;;;;;31.90;14.40;;;;;;;;;;5013177;28;20046;-76
2022/12/04 02:41:03;;;;;;;31.10;14.68;;;;;;;;;;4993667;28;20121;-76
2022/12/04 02:43:49;;;;;;;35.42;15.32;;;;;;;;;;4993259;28;20106;-76
2022/12/04 02:46:24;;;;;;;30.70;14.60;;;;;;;;;;4993173;28;20050;-76
2022/12/04 02:48:52;;;;;;;30.83;14.38;;;;;;;;;;4993214;28;20137;-77
2022/12/04 02:51:20;;;;;;;33.47;16.08;;;;;;;;;;4992681;28;20572;-76
2022/12/04 02:53:56;;;;;;;36.08;16.65;;;;;;;;;;4993641;28;20042;-76
2022/12/04 02:56:24;;;;;;;34.13;15.20;;;;;;;;;;5001041;28;20054;-76
2022/12/04 02:58:54;;;;;;;38.17;16.65;;;;;;;;;;5006691;28;20050;-76
2022/12/04 03:01:23;;;;;;;35.33;16.30;;;;;;;;;;5009935;28;20129;-76
2022/12/04 03:04:00;;;;;;;35.28;16.25;;;;;;;;;;4992629;28;20416;-76
2022/12/04 03:06:27;;;;;;;37.55;16.58;;;;;;;;;;5030031;28;20056;-76
2022/12/04 03:08:57;;;;;;;32.33;15.70;;;;;;;;;;5034270;28;20049;-76
2022/12/04 03:11:25;;;;;;;33.42;15.93;;;;;;;;;;5015570;28;20049;-76
2022/12/04 03:13:57;;;;;;;31.58;16.17;;;;;;;;;;5026551;28;20506;-76
2022/12/04 03:16:29;;;;;;;31.25;14.77;;;;;;;;;;5020478;28;20033;-76
2022/12/04 03:19:00;;;;;;;30.65;14.77;;;;;;;;;;5034149;28;20058;-76
2022/12/04 03:21:29;;;;;;;32.78;14.20;;;;;;;;;;5034447;28;20045;-76
2022/12/04 03:23:58;;;;;;;32.08;14.20;;;;;;;;;;5033993;28;20116;-76
2022/12/04 03:26:38;;;;;;;33.85;15.75;;;;;;;;;;5034328;28;20049;-76
2022/12/04 03:29:10;;;;;;;33.10;15.88;;;;;;;;;;5031853;28;20041;-76
2022/12/04 03:31:45;;;;;;;29.42;14.90;;;;;;;;;;5013567;28;20084;-76
2022/12/04 03:34:12;;;;;;;35.22;15.80;;;;;;;;;;5014546;28;20121;-76
2022/12/04 03:36:51;;;;;;;36.97;16.23;;;;;;;;;;5014665;28;20076;-76
2022/12/04 03:39:20;;;;;;;34.33;14.85;;;;;;;;;;5021842;28;20118;-76
2022/12/04 03:41:46;;;;;;;32.08;14.77;;;;;;;;;;5032683;28;20118;-76
2022/12/04 03:44:25;;;;;;;34.80;15.95;;;;;;;;;;5034044;28;20443;-76
2022/12/04 03:46:51;;;;;;;31.92;15.10;;;;;;;;;;5033488;28;20496;-76
2022/12/04 03:49:20;;;;;;;38.38;16.33;;;;;;;;;;5033778;28;20060;-76
2022/12/04 03:51:55;;;;;;;35.17;15.30;;;;;;;;;;5015098;28;20042;-76
2022/12/04 03:54:30;;;;;;;35.20;16.37;;;;;;;;;;5014233;28;20388;-76
2022/12/04 03:57:06;;;;;;;34.08;15.93;;;;;;;;;;5026871;28;20076;-76
2022/12/04 03:59:32;;;;;;;;;;;;;;;;;;5017503;28;20045;-77
2022/12/04 04:01:59;;;;;;;33.53;14.80;;;;;;;;;;5014348;28;19922;-76
2022/12/04 04:04:27;;;;;;;37.22;16.48;;;;;;;;;;5029751;28;20060;-76
2022/12/04 04:06:56;;;;;;;35.03;15.38;;;;;;;;;;5031978;28;20051;-77
2022/12/04 04:09:25;;;;;;;34.45;15.38;;;;;;;;;;5033445;28;20045;-76
2022/12/04 04:12:12;;;;;;;38.15;16.40;;;;;;;;;;5033288;28;20398;-76
2022/12/04 04:25:47;;;;;;;38.03;16.80;;;;;;;;;;5033796;28;20099;-76
2022/12/04 04:28:27;;;;;;;38.33;17.48;;;;;;;;;;5035088;28;20128;-76
2022/12/04 04:30:55;;;;;;;36.30;16.92;;;;;;;;;;5036589;28;20045;-76
2022/12/04 04:33:21;;;;;;;35.55;16.42;;;;;;;;;;5037057;28;20053;-76
2022/12/04 04:36:13;;;;;;;39.35;17.75;;;;;;;;;;5031819;28;20074;-76
2022/12/04 04:38:44;;;;;;;35.47;16.45;;;;;;;;;;5036203;28;20057;-76
2022/12/04 04:41:14;;;;;;;40.05;17.70;;;;;;;;;;5037613;28;20045;-76
2022/12/04 04:43:46;;;;;;;38.60;16.48;;;;;;;;;;5036227;28;20102;-76
2022/12/04 04:46:24;;;;;;;35.83;17.20;;;;;;;;;;5025446;28;20497;-76
2022/12/04 04:48:53;;;;;;;36.47;17.60;;;;;;;;;;5022184;28;20046;-76
2022/12/04 04:51:20;;;;;;;35.00;16.40;;;;;;;;;;5028029;28;20045;-76
2022/12/04 04:53:47;;;;;;;41.30;18.35;;;;;;;;;;5034889;28;20049;-76
2022/12/04 04:56:14;;;;;;;38.88;17.63;;;;;;;;;;5017374;28;20046;-76
2022/12/04 04:58:41;;;;;;;39.35;18.20;;;;;;;;;;5026319;28;20488;-76
2022/12/04 05:01:08;;;;;;;36.25;16.42;;;;;;;;;;5030989;28;20092;-76
2022/12/04 05:03:34;;;;;;;42.00;17.80;;;;;;;;;;5033053;28;20476;-76
2022/12/04 05:06:00;;;;;;;40.42;18.38;;;;;;;;;;5037422;28;20041;-76
2022/12/04 05:08:26;;;;;;;37.03;17.15;;;;;;;;;;5035942;28;20038;-76
2022/12/04 05:10:53;;;;;;;39.28;18.08;;;;;;;;;;5036704;28;20048;-76
2022/12/04 05:13:19;;;;;;;40.63;18.17;;;;;;;;;;5032215;28;20047;-76
2022/12/04 05:15:54;;;;;;;36.92;18.40;;;;;;;;;;5036607;28;20048;-76
2022/12/04 05:18:20;;;;;;;42.55;18.67;;;;;;;;;;5016712;28;20087;-76
2022/12/04 05:20:47;;;;;;;39.42;17.98;;;;;;;;;;5015712;28;20388;-76
2022/12/04 05:23:13;;;;;;;34.00;16.75;;;;;;;;;;5028419;28;20404;-76
2022/12/04 05:25:39;;;;;;;38.05;18.33;;;;;;;;;;4999287;28;20468;-76
2022/12/04 05:28:05;;;;;;;42.95;19.05;;;;;;;;;;5033343;28;20049;-76
2022/12/04 05:30:31;;;;;;;42.47;18.77;;;;;;;;;;5027139;28;20060;-76
2022/12/04 05:32:57;;;;;;;40.17;18.90;;;;;;;;;;5000280;28;20052;-76
2022/12/04 05:35:23;;;;;;;41.67;20.00;;;;;;;;;;5035991;28;20492;-76
2022/12/04 05:37:49;;;;;;;39.25;18.30;;;;;;;;;;5036122;28;20477;-76
2022/12/04 05:40:16;;;;;;;41.35;19.92;;;;;;;;;;5031334;28;20068;-76
2022/12/04 05:42:42;;;;;;;40.08;18.65;;;;;;;;;;5035730;28;20045;-77
2022/12/04 05:45:08;;;;;;;40.13;18.42;;;;;;;;;;5035272;28;20563;-77
2022/12/04 05:47:40;;;;;;;40.80;19.52;;;;;;;;;;5036839;28;20080;-77
2022/12/04 05:50:07;;;;;;;41.40;21.10;;;;;;;;;;5036181;28;20050;-76
2022/12/04 05:52:33;;;;;;;46.60;20.75;;;;;;;;;;5036456;28;20104;-76
2022/12/04 05:55:02;;;;;;;47.35;21.20;;;;;;;;;;5034778;28;20428;-76
2022/12/04 05:57:28;;;;;;;44.90;21.10;;;;;;;;;;5035685;28;20100;-76
2022/12/04 05:59:54;;;;;;;40.53;19.40;;;;;;;;;;5035977;28;20046;-76
2022/12/04 06:02:20;;;;;;;40.72;18.90;;;;;;;;;;5034544;28;20041;-76
2022/12/04 06:04:46;;;;;;;35.92;16.90;;;;;;;;;;5028762;28;20093;-77
2022/12/04 06:07:12;;;;;;;40.28;19.77;;;;;;;;;;5029305;28;20134;-76
2022/12/04 06:09:38;;;;;;;43.97;19.92;;;;;;;;;;5034314;28;20492;-76
2022/12/04 06:12:04;;;;;;;46.47;20.50;;;;;;;;;;5030207;28;20052;-76
2022/12/04 06:14:31;;;;;;;46.15;19.58;;;;;;;;;;5032149;28;20034;-77
2022/12/04 06:16:57;;;;;;;42.88;20.95;;;;;;;;;;5015539;28;20045;-77
2022/12/04 06:19:23;;;;;;;44.08;21.13;;;;;;;;;;5031157;28;20061;-77
2022/12/04 06:21:50;;;;;;;45.55;20.00;;;;;;;;;;5028007;28;20121;-77
2022/12/04 06:24:18;;;;;;;44.20;19.40;;;;;;;;;;5015230;28;20436;-77
2022/12/04 06:26:44;;;;;;;44.25;20.50;;;;;;;;;;5020096;28;20494;-77
2022/12/04 06:29:11;;;;;;;42.92;20.02;;;;;;;;;;5024721;28;20046;-76
2022/12/04 06:31:37;;;;;;;41.67;20.02;;;;;;;;;;5032998;28;20408;-76
2022/12/04 06:34:04;;;;;;;48.35;21.23;;;;;;;;;;5035405;28;20087;-77
2022/12/04 06:36:30;;;;;;;43.60;20.42;;;;;;;;;;5035323;28;20045;-77
2022/12/04 06:38:57;;;;;;;39.05;18.10;;;;;;;;;;5030164;28;20088;-76
2022/12/04 06:41:23;;;;;;;42.53;20.20;;;;;;;;;;5028078;28;20457;-76
2022/12/04 06:43:50;;;;;;;48.85;22.33;;;;;;;;;;5031836;28;20057;-76
2022/12/04 06:46:21;;;;;;;44.60;21.00;;;;;;;;;;5034513;28;20049;-76
2022/12/04 06:48:47;;;;;;;43.30;19.58;;;;;;;;;;5031750;28;20132;-76
2022/12/04 06:51:20;;;;;;;42.72;20.73;;;;;;;;;;5014305;28;20042;-76
2022/12/04 06:53:46;;;;;;;44.97;21.20;;;;;;;;;;5028944;28;20045;-76
2022/12/04 06:56:16;;;;;;;43.40;20.25;;;;;;;;;;5023518;28;20135;-76
2022/12/04 06:58:43;;;;;;;44.88;20.75;;;;;;;;;;5034766;28;20507;-77
2022/12/04 07:01:10;;;;;;;44.28;20.50;;;;;;;;;;5034407;28;20045;-76
2022/12/04 07:03:37;;;;;;;46.10;21.70;;;;;;;;;;5034607;28;20049;-76
2022/12/04 07:06:17;;;;;;;43.15;20.15;;;;;;;;;;5033682;28;20045;-76
2022/12/04 07:08:44;;;;;;;42.92;19.58;;;;;;;;;;5032605;28;20042;-76
2022/12/04 07:11:10;;;;;;;42.10;19.92;;;;;;;;;;5030927;28;20042;-76
2022/12/04 07:13:36;;;;;;;45.10;20.50;;;;;;;;;;5034694;28;20121;-76
2022/12/04 07:16:03;;;;;;;43.20;19.88;;;;;;;;;;5034406;28;20048;-76
2022/12/04 07:18:33;;;;;;;40.80;19.33;;;;;;;;;;5033962;28;20060;-79
2022/12/04 07:20:59;;;;;;;43.97;19.30;;;;;;;;;;5034297;28;20476;-77
2022/12/04 07:23:28;;;;;;;42.17;19.48;;;;;;;;;;5034158;28;20083;-76
2022/12/04 07:25:56;;;;;;;39.70;17.83;;;;;;;;;;5029309;28;20133;-77
2022/12/04 07:28:22;;;;;;;39.70;19.35;;;;;;;;;;5014168;28;20053;-76
2022/12/04 07:30:48;;;;;;;39.40;18.75;;;;;;;;;;5025421;28;20396;-76
2022/12/04 07:33:17;;;;;;;42.05;19.75;;;;;;;;;;5034026;28;20511;-76
2022/12/04 07:35:43;;;;;;;37.72;19.58;;;;;;;;;;5032690;28;20042;-76
2022/12/04 07:38:09;;;;;;;39.72;18.67;;;;;;;;;;5026059;28;20044;-76
2022/12/04 07:40:37;;;;;;;43.22;18.50;;;;;;;;;;5029082;28;20461;-76
2022/12/04 07:43:03;;;;;;;39.08;18.15;;;;;;;;;;5019542;28;20447;-77
2022/12/04 07:45:29;;;;;;;31.65;15.60;;;;;;;;;;5013913;28;20122;-77
2022/12/04 07:47:55;;;;;;;35.40;17.27;;;;;;;;;;5016719;28;20057;-77
2022/12/04 07:50:21;;;;;;;36.88;18.30;;;;;;;;;;5027847;28;20504;-76
2022/12/04 07:52:47;;;;;;;34.70;17.45;;;;;;;;;;5033687;28;20045;-77
2022/12/04 07:55:13;;;;;;;34.22;16.23;;;;;;;;;;5033832;28;20041;-78
2022/12/04 07:57:39;;;;;;;34.03;16.00;;;;;;;;;;5034028;28;20061;-77
2022/12/04 08:00:06;;;;;;;36.60;17.27;;;;;;;;;;5033431;28;20052;-77
2022/12/04 08:02:32;;;;;;;35.08;17.25;;;;;;;;;;5031618;28;20132;-77
2022/12/04 08:04:58;;;;;;;33.17;15.68;;;;;;;;;;5033385;28;20128;-77
2022/12/04 08:07:24;;;;;;;30.92;15.23;;;;;;;;;;5032179;28;20471;-77
2022/12/04 08:09:50;;;;;;;33.13;15.73;;;;;;;;;;5037549;28;20451;-77
2022/12/04 08:12:16;;;;;;;32.00;15.63;;;;;;;;;;5026256;28;20046;-77
2022/12/04 08:14:42;;;;;;;34.65;16.65;;;;;;;;;;5029693;28;20100;-77
2022/12/04 08:17:08;;;;;;;34.13;16.88;;;;;;;;;;5029733;28;20667;-77
2022/12/04 08:19:34;;;;;;;38.67;17.48;;;;;;;;;;5033306;28;20065;-77
2022/12/04 08:22:00;;;;;;;37.58;17.95;;;;;;;;;;5032961;28;20454;-77
2022/12/04 08:24:27;;;;;;;37.17;16.48;;;;;;;;;;5033663;28;20061;-77
2022/12/04 08:26:57;;;;;;;37.90;18.40;;;;;;;;;;5033878;28;20046;-77
2022/12/04 08:29:23;;;;;;;34.15;16.13;;;;;;;;;;5032910;28;20503;-77
2022/12/04 08:31:49;;;;;;;36.85;18.25;;;;;;;;;;5020250;28;20097;-77
2022/12/04 08:34:15;;;;;;;34.70;17.45;;;;;;;;;;5013519;28;20046;-78
2022/12/04 08:36:41;;;;;;;39.13;17.20;;;;;;;;;;5022204;28;20049;-78
2022/12/04 08:39:07;;;;;;;36.00;16.55;;;;;;;;;;5014294;28;20056;-79
2022/12/04 08:41:36;;;;;;;39.63;18.92;;;;;;;;;;5014297;28;20050;-80
2022/12/04 08:44:03;;;;;;;41.58;19.45;;;;;;;;;;5035879;28;20042;-78
2022/12/04 08:46:32;;;;;;;42.80;19.63;;;;;;;;;;5022833;28;20042;-79
2022/12/04 08:48:58;;;;;;;37.08;16.67;;;;;;;;;;5032370;28;20046;-78
2022/12/04 08:51:26;;;;;;;34.17;17.20;;;;;;;;;;5017349;28;20044;-79
2022/12/04 08:53:53;;;;;;;35.00;16.52;;;;;;;;;;5032916;28;20045;-78
2022/12/04 08:56:19;;;;;;;39.47;18.58;;;;;;;;;;5035413;28;20129;-78
2022/12/04 08:58:45;;;;;;;39.65;17.40;;;;;;;;;;5016942;28;20132;-78
2022/12/04 09:01:12;;;;;;;35.22;17.17;;;;;;;;;;5033040;28;20069;-78
2022/12/04 09:03:41;;;;;;;39.50;18.05;;;;;;;;;;5033764;28;20412;-79
2022/12/04 09:06:08;;;;;;;38.45;18.90;;;;;;;;;;5021740;28;20049;-79
2022/12/04 09:08:34;;;;;;;39.55;19.17;;;;;;;;;;5035145;28;20408;-79
2022/12/04 09:11:03;;;;;;;39.20;17.02;;;;;;;;;;5036448;28;20432;-79
2022/12/04 09:13:29;;;;;;;37.10;18.17;;;;;;;;;;5031283;28;20041;-79
2022/12/04 09:15:55;;;;;;;40.10;17.63;;;;;;;;;;5036864;28;20057;-79
2022/12/04 09:18:24;;;;;;;37.35;17.60;;;;;;;;;;5037332;28;20066;-79
2022/12/04 09:21:00;;;;;;;38.78;17.48;;;;;;;;;;5037478;28;20109;-78
2022/12/04 09:23:26;;;;;;;;;;;;;;;;;;5036096;28;20034;-79
2022/12/04 09:25:53;;;;;;;39.40;18.47;;;;;;;;;;5036500;28;19925;-78
2022/12/04 09:28:19;;;;;;;35.15;17.65;;;;;;;;;;5032101;28;20091;-79
2022/12/04 09:30:45;;;;;;;39.85;18.38;;;;;;;;;;5021918;28;20098;-79
2022/12/04 09:33:11;;;;;;;37.88;17.70;;;;;;;;;;5040235;28;20101;-79
2022/12/04 09:35:38;;;;;;;35.28;17.40;;;;;;;;;;5039216;28;20056;-79
2022/12/04 09:38:05;;;;;;;35.38;17.45;;;;;;;;;;5032298;28;20041;-79
2022/12/04 09:40:36;;;;;;;36.88;17.77;;;;;;;;;;5035475;28;20068;-79
2022/12/04 09:43:11;;;;;;;33.40;16.23;;;;;;;;;;5017770;28;20057;-78
2022/12/04 09:45:44;;;;;;;34.13;16.05;;;;;;;;;;5016688;28;20481;-78
2022/12/04 09:48:11;;;;;;;36.25;17.38;;;;;;;;;;5038173;28;20106;-79
2022/12/04 09:50:39;;;;;;;34.40;18.02;;;;;;;;;;5036941;28;20077;-79
2022/12/04 09:53:09;;;;;;;36.22;17.63;;;;;;;;;;5037233;28;20037;-77
2022/12/04 09:55:39;;;;;;;33.92;16.10;;;;;;;;;;5035334;28;20092;-76
2022/12/04 09:58:06;;;;;;;31.05;16.58;;;;;;;;;;5036079;28;20392;-76
2022/12/04 10:00:35;;;;;;;33.88;16.60;;;;;;;;;;5021777;28;20045;-76
2022/12/04 10:03:04;;;;;;;33.42;16.85;;;;;;;;;;5022272;28;20041;-76
2022/12/04 10:05:39;;;;;;;34.10;16.45;;;;;;;;;;5026585;28;20114;-77
2022/12/04 10:08:10;;;;;;;30.98;15.88;;;;;;;;;;5022168;28;20045;-76
2022/12/04 10:10:36;;;;;;;29.27;14.35;;;;;;;;;;5022137;28;20046;-76
2022/12/04 10:13:22;;;;;;;30.63;15.57;;;;;;;;;;5034993;28;20041;-76
2022/12/04 10:16:00;;;;;;;27.42;13.85;;;;;;;;;;5035485;28;20114;-76
2022/12/04 10:18:35;;;;;;;26.50;15.00;;;;;;;;;;5015203;28;20386;-76
2022/12/04 10:21:01;;;;;;;30.50;16.13;;;;;;;;;;5015785;28;20133;-76
2022/12/04 10:23:33;;;;;;;27.65;13.95;;;;;;;;;;5030591;28;20531;-76
2022/12/04 10:26:01;;;;;;;28.17;14.20;;;;;;;;;;5020960;28;20125;-77
2022/12/04 10:28:31;;;;;;;25.80;13.23;;;;;;;;;;5021399;28;20057;-76
2022/12/04 10:30:59;;;;;;;22.20;12.15;;;;;;;;;;5023192;28;20049;-76
2022/12/04 10:33:36;;;;;;;27.77;13.65;;;;;;;;;;5020598;28;20045;-76
2022/12/04 10:36:03;;;;;;;26.17;13.57;;;;;;;;;;5014000;28;20060;-76
2022/12/04 10:38:34;;;;;;;29.33;14.98;;;;;;;;;;5015861;28;20555;-76
2022/12/04 10:41:14;;;;;;;22.95;14.25;;;;;;;;;;5030574;28;20054;-76
2022/12/04 10:43:43;;;;;;;26.27;14.35;;;;;;;;;;5030279;28;20073;-76
2022/12/04 10:46:13;;;;;;;24.92;13.68;;;;;;;;;;5034543;28;20468;-76
2022/12/04 10:48:40;;;;;;;24.98;13.82;;;;;;;;;;5033475;28;20076;-76
2022/12/04 10:51:12;;;;;;;26.10;13.40;;;;;;;;;;5035208;28;20051;-76
2022/12/04 10:53:38;;;;;;;26.65;13.55;;;;;;;;;;5025599;28;20072;-76
2022/12/04 10:56:11;;;;;;;26.75;12.95;;;;;;;;;;5034752;28;20052;-76
2022/12/04 10:58:37;;;;;;;26.67;13.77;;;;;;;;;;5034884;28;20038;-76
2022/12/04 11:01:05;;;;;;;28.40;13.23;;;;;;;;;;5033950;28;20045;-76
2022/12/04 11:03:31;;;;;;;21.50;11.82;;;;;;;;;;5032542;28;20116;-77
2022/12/04 11:06:05;;;;;;;26.00;13.38;;;;;;;;;;5015191;28;20437;-76
2022/12/04 11:08:42;;;;;;;24.17;13.15;;;;;;;;;;5014793;28;20139;-77
2022/12/04 11:11:10;;;;;;;24.67;12.85;;;;;;;;;;5015766;28;20049;-79
2022/12/04 11:13:36;;;;;;;21.98;12.70;;;;;;;;;;5015544;28;20046;-78
2022/12/04 11:16:06;;;;;;;19.77;11.07;;;;;;;;;;5038075;28;20048;-79
2022/12/04 11:18:46;;;;;;;15.82;9.02;;;;;;;;;;5054677;28;20092;-79
2022/12/04 11:21:24;;;;;;;17.92;9.88;;;;;;;;;;5039202;28;20518;-79
2022/12/04 11:23:50;;;;;;;16.55;8.93;;;;;;;;;;5021279;28;20070;-78
2022/12/04 11:26:17;;;;;;;16.85;9.93;;;;;;;;;;5016559;28;20045;-78
2022/12/04 11:28:49;;;;;;;15.63;8.73;;;;;;;;;;5033013;28;20171;-78
2022/12/04 11:31:18;;;;;;;14.43;8.40;;;;;;;;;;5032992;28;20041;-79
2022/12/04 11:33:46;;;;;;;13.93;7.88;;;;;;;;;;5016151;28;20045;-79
2022/12/04 11:36:20;;;;;;;14.13;7.88;;;;;;;;;;5009233;28;20053;-78
2022/12/04 11:38:46;;;;;;;16.58;9.73;;;;;;;;;;5035221;28;20559;-78
2022/12/04 11:41:41;;;;;;;18.73;9.98;;;;;;;;;;5027289;28;20045;-78
2022/12/04 11:44:21;;;;;;;19.48;10.10;;;;;;;;;;5011570;28;20413;-78
2022/12/04 11:46:51;;;;;;;17.40;9.93;;;;;;;;;;5035332;28;20042;-79
2022/12/04 11:49:21;;;;;;;18.08;10.93;;;;;;;;;;5018465;28;20045;-78
2022/12/04 11:51:54;;;;;;;20.33;10.93;;;;;;;;;;5035015;28;20048;-78
2022/12/04 11:54:44;;;;;;;19.25;10.32;;;;;;;;;;5035387;28;20048;-78
2022/12/04 11:57:10;;;;;;;18.90;11.15;;;;;;;;;;5034703;28;20051;-79
2022/12/04 11:59:54;;;;;;;18.27;10.10;;;;;;;;;;5034514;28;20041;-79
2022/12/04 12:02:59;;;;;;;17.77;10.23;;;;;;;;;;5034813;28;20046;-78
2022/12/04 12:05:47;;;;;;;19.10;9.93;;;;;;;;;;5052160;28;20482;-79
2022/12/04 12:08:15;;;;;;;21.00;10.52;;;;;;;;;;5051987;28;20055;-78
2022/12/04 12:10:45;;;;;;;17.98;10.05;;;;;;;;;;5046306;28;20054;-78
2022/12/04 12:13:22;;;;;;;14.80;7.45;;;;;;;;;;5041423;28;20092;-79
2022/12/04 12:15:50;;;;;;;;;;;;;;;;;;5039818;28;20455;-80
2022/12/04 12:18:36;;;;;;;16.50;9.68;;;;;;;;;;5024854;28;19921;-79
2022/12/04 12:21:11;;;;;;;18.73;10.27;;;;;;;;;;5046931;28;20502;-79
2022/12/04 12:23:37;;;;;;;19.08;10.57;;;;;;;;;;5033276;28;20438;-78
2022/12/04 12:26:03;;;;;;;17.60;10.23;;;;;;;;;;5052359;28;20740;-78
2022/12/04 12:28:40;;;;;;;20.90;11.38;;;;;;;;;;5053693;28;20052;-79
2022/12/04 12:31:38;;;;;;;18.73;10.27;;;;;;;;;;5036707;28;20052;-78
2022/12/04 12:34:15;;;;;;;21.80;11.63;;;;;;;;;;5032608;28;20107;-78
2022/12/04 12:36:46;;;;;;;20.27;11.35;;;;;;;;;;4979888;28;20061;-78
2022/12/04 12:39:19;;;;;;;18.95;11.38;;;;;;;;;;4973005;28;20061;-78
2022/12/04 12:41:50;;;;;;;18.75;10.55;;;;;;;;;;4972652;28;20039;-76
2022/12/04 12:44:19;;;;;;;19.30;11.85;;;;;;;;;;4977048;28;20058;-78
2022/12/04 12:46:50;;;;;;;19.30;11.02;;;;;;;;;;4992297;28;20040;-80
2022/12/04 12:49:39;;;;;;;21.55;11.05;;;;;;;;;;4992339;28;20447;-78
2022/12/04 12:52:16;;;;;;;19.70;11.27;;;;;;;;;;4994929;28;20054;-77
2022/12/04 12:54:50;;;;;;;20.90;10.18;;;;;;;;;;4994219;28;20109;-77
2022/12/04 12:57:19;;;;;;;21.75;11.40;;;;;;;;;;4976435;28;20055;-77
2022/12/04 12:59:50;;;;;;;21.50;11.68;;;;;;;;;;4978526;28;20153;-78
2022/12/04 13:02:35;;;;;;;18.10;9.95;;;;;;;;;;4975599;28;20050;-78
2022/12/04 13:05:05;;;;;;;19.42;11.15;;;;;;;;;;4977905;28;20540;-78
2022/12/04 13:07:49;;;;;;;20.65;10.88;;;;;;;;;;4994936;28;20066;-79
2022/12/04 13:10:34;;;;;;;20.73;10.95;;;;;;;;;;5013382;28;20050;-77
2022/12/04 13:13:03;;;;;;;20.65;10.55;;;;;;;;;;5035630;28;20483;-79
2022/12/04 13:15:35;;;;;;;21.52;11.52;;;;;;;;;;5032641;28;20130;-77
2022/12/04 13:18:02;;;;;;;19.63;9.82;;;;;;;;;;5026402;28;20136;-76
2022/12/04 13:20:31;;;;;;;19.35;10.57;;;;;;;;;;5027147;28;20056;-77
2022/12/04 13:23:05;;;;;;;20.25;11.20;;;;;;;;;;5036134;28;20053;-77
2022/12/04 13:25:40;;;;;;;17.15;9.93;;;;;;;;;;5036497;28;20052;-78
2022/12/04 13:28:25;;;;;;;17.42;10.57;;;;;;;;;;5023015;28;20037;-77
2022/12/04 13:30:55;;;;;;;17.75;9.40;;;;;;;;;;5017848;28;20068;-78
2022/12/04 13:33:40;;;;;;;17.70;10.52;;;;;;;;;;5033396;28;20052;-78
2022/12/04 13:36:24;;;;;;;19.92;10.85;;;;;;;;;;5037280;28;20129;-81
2022/12/04 13:38:50;;;;;;;18.55;10.65;;;;;;;;;;5016044;28;20042;-78
2022/12/04 13:41:19;;;;;;;19.75;11.20;;;;;;;;;;5025087;28;20145;-77
2022/12/04 13:43:47;;;;;;;20.70;11.45;;;;;;;;;;5022366;28;20508;-77
2022/12/04 13:46:18;;;;;;;21.60;11.50;;;;;;;;;;5027306;28;20100;-77
2022/12/04 13:48:44;;;;;;;21.15;10.90;;;;;;;;;;5030273;28;20083;-77
2022/12/04 13:51:14;;;;;;;24.25;12.45;;;;;;;;;;5017952;28;20045;-77
2022/12/04 13:53:42;;;;;;;21.10;11.25;;;;;;;;;;5025887;28;20447;-77
2022/12/04 13:56:28;;;;;;;24.08;12.43;;;;;;;;;;5035909;28;20042;-78
2022/12/04 13:59:05;;;;;;;20.52;11.30;;;;;;;;;;5030396;28;20506;-77
2022/12/04 14:01:38;;;;;;;21.45;12.40;;;;;;;;;;5023276;28;20077;-77
2022/12/04 14:04:04;;;;;;;21.88;11.55;;;;;;;;;;5021583;28;20048;-77
2022/12/04 14:06:37;;;;;;;23.02;11.55;;;;;;;;;;5025710;28;20121;-78
2022/12/04 14:09:05;;;;;;;22.60;11.23;;;;;;;;;;5027138;28;20479;-78
2022/12/04 14:11:41;;;;;;;22.23;12.95;;;;;;;;;;5025312;28;20046;-78
2022/12/04 14:14:20;;;;;;;23.85;11.85;;;;;;;;;;5019033;28;20385;-77
2022/12/04 14:16:51;;;;;;;25.10;13.38;;;;;;;;;;5028360;28;20045;-77
2022/12/04 14:19:46;;;;;;;24.17;12.27;;;;;;;;;;5031631;28;20513;-77
2022/12/04 14:22:45;;;;;;;26.17;13.13;;;;;;;;;;5023962;28;20125;-77
2022/12/04 14:25:17;;;;;;;23.23;12.95;;;;;;;;;;5012469;28;20077;-77
2022/12/04 14:27:44;;;;;;;23.05;12.02;;;;;;;;;;5021716;28;20046;-77
2022/12/04 14:30:13;;;;;;;21.90;11.32;;;;;;;;;;5034551;28;20095;-77
2022/12/04 14:32:43;;;;;;;23.60;12.77;;;;;;;;;;5033230;28;20092;-77
2022/12/04 14:35:35;;;;;;;22.30;12.50;;;;;;;;;;5034807;28;20041;-76
2022/12/04 14:38:03;;;;;;;20.92;11.80;;;;;;;;;;5034978;28;20057;-78
2022/12/04 14:40:43;;;;;;;20.25;11.90;;;;;;;;;;5031703;28;20133;-76
2022/12/04 14:43:20;;;;;;;20.08;11.43;;;;;;;;;;5024875;28;20038;-76
2022/12/04 14:46:05;;;;;;;20.33;11.10;;;;;;;;;;5019773;28;20099;-76
2022/12/04 14:48:31;;;;;;;19.92;11.15;;;;;;;;;;5029439;28;20047;-77